Airport Name : Fuerteventura

Other Name : Fuerteventura

ICAO : GCFV

IATA : FUE

FAA :

Latitude : 28.452717

Longitude : -13.863761

Country : Spain

Local Date and Time : 29 Nov 2020 20:19

 

TAF (Terminal Aerodrome Forecast)

 

METAR (METeorological Aerodrome Report)

GCFV 292000Z 29003KT 240V320 9999 SCT045 17/15 Q1012

GCFV 291930Z 26004KT 220V290 9999 SCT045 17/15 Q1011

GCFV 291900Z 21006KT 9999 SCT045 17/15 Q1011

GCFV 291830Z 20010KT 9999 BKN045 17/16 Q1011 RESHRA

GCFV 291816Z 19008KT 7000 SHRA BKN045TCU 17/16 Q1011

GCFV 291800Z 20007KT 9999 BKN045 18/16 Q1011

GCFV 291730Z 21006KT 190V250 9999 FEW039 BKN044 18/16 Q1012

GCFV 291711Z 22006KT 190V260 9999 FEW039 BKN044 18/16 Q1012 RESHRA

GCFV 291700Z 19007KT 160V280 4900 SHRA FEW039TCU BKN044 18/16 Q1012

GCFV 291643Z 19009KT 140V250 7000 FEW036 BKN044 18/17 Q1012 RERA

GCFV 291630Z 19009KT 5000 RA FEW036 BKN044 19/16 Q1011

To Charter a Jet Click here.